Time;durP1;ratioP1;P1;durP2;ratioP2;P2;SDS_P1;SDS_P2;PMS_P1;PMS_P2;Temp;Humidity;BMP_temperature;BMP_pressure;BME280_temperature;BME280_humidity;BME280_pressure;Samples;Min_cycle;Max_cycle;Signal;HPM_P1;HPM_P2
2023/07/03 00:00:15;;;;;;;15.43;6.70;;;;;;;20.46;63.84;100235.16;5118921;28;20096;-70
2023/07/03 00:02:40;;;;;;;15.10;6.75;;;;;;;20.44;64.13;100234.38;5119429;28;20027;-70
2023/07/03 00:05:08;;;;;;;12.23;6.35;;;;;;;20.42;64.57;100233.56;5119189;28;20759;-70
2023/07/03 00:07:34;;;;;;;16.25;6.95;;;;;;;20.37;64.29;100237.31;5119143;28;20023;-70
2023/07/03 00:10:00;;;;;;;15.03;6.70;;;;;;;20.37;64.33;100236.44;5119189;28;20126;-70
2023/07/03 00:12:25;;;;;;;13.70;6.90;;;;;;;20.35;64.39;100233.81;5119213;28;20110;-70
2023/07/03 00:14:50;;;;;;;18.17;7.13;;;;;;;20.35;64.34;100225.81;5118945;28;20268;-70
2023/07/03 00:17:16;;;;;;;15.77;6.90;;;;;;;20.37;64.33;100221.25;5116285;28;20024;-70
2023/07/03 00:19:41;;;;;;;15.43;6.43;;;;;;;20.37;64.63;100225.75;5119115;28;20023;-70
2023/07/03 00:22:07;;;;;;;15.57;7.70;;;;;;;20.40;64.23;100219.41;5119065;28;20024;-70
2023/07/03 00:24:33;;;;;;;15.10;7.10;;;;;;;20.39;64.50;100218.53;5118959;28;20031;-70
2023/07/03 00:26:59;;;;;;;14.80;7.15;;;;;;;20.37;64.39;100215.06;5118945;28;20016;-70
2023/07/03 00:29:25;;;;;;;14.63;7.53;;;;;;;20.32;64.71;100223.28;5118583;28;20065;-70
2023/07/03 00:31:51;;;;;;;15.60;7.20;;;;;;;20.30;64.58;100211.78;5118826;28;20024;-69
2023/07/03 00:34:16;;;;;;;13.35;7.22;;;;;;;20.29;64.95;100210.06;5118838;28;20544;-70
2023/07/03 00:36:42;;;;;;;15.30;7.45;;;;;;;20.25;64.81;100211.13;5118890;28;20020;-70
2023/07/03 00:39:08;;;;;;;15.63;7.47;;;;;;;20.23;64.95;100215.69;5100206;28;20062;-70
2023/07/03 00:41:34;;;;;;;15.60;7.57;;;;;;;20.22;65.47;100221.97;5118703;28;20117;-70
2023/07/03 00:44:00;;;;;;;14.93;7.47;;;;;;;20.20;65.35;100218.50;5118201;28;20345;-70
2023/07/03 00:46:25;;;;;;;17.23;8.02;;;;;;;20.18;65.48;100220.38;5118447;28;20053;-70
2023/07/03 00:48:51;;;;;;;16.63;8.07;;;;;;;20.17;65.32;100226.66;5118370;28;20031;-70
2023/07/03 00:51:17;;;;;;;17.13;8.10;;;;;;;20.16;65.65;100224.94;5118470;28;20074;-70
2023/07/03 00:53:44;;;;;;;18.85;7.97;;;;;;;20.18;65.53;100223.06;5118190;28;20039;-70
2023/07/03 00:56:10;;;;;;;17.17;8.15;;;;;;;20.15;65.63;100223.19;5117973;28;20131;-70
2023/07/03 00:58:36;;;;;;;16.60;7.32;;;;;;;20.14;65.73;100226.81;5117130;28;20023;-70
2023/07/03 01:01:21;;;;;;;14.73;7.80;;;;;;;20.14;65.59;100226.81;5117990;28;20030;-70
2023/07/03 01:03:57;;;;;;;19.05;8.40;;;;;;;20.15;65.73;100225.88;5118275;28;20020;-70
2023/07/03 01:06:28;;;;;;;18.35;8.88;;;;;;;20.16;65.56;100222.25;5118048;28;20020;-70
2023/07/03 01:08:59;;;;;;;19.30;7.78;;;;;;;20.16;65.54;100222.25;5118044;28;20023;-70
2023/07/03 01:11:26;;;;;;;16.40;7.70;;;;;;;20.12;65.40;100220.63;5117589;28;20032;-69
2023/07/03 01:13:55;;;;;;;17.17;8.52;;;;;;;20.08;65.81;100219.91;5117936;28;20491;-70
2023/07/03 01:16:21;;;;;;;18.15;8.65;;;;;;;20.08;65.78;100215.44;5117577;28;20023;-70
2023/07/03 01:18:49;;;;;;;16.37;8.17;;;;;;;20.08;65.48;100226.13;5115593;28;20042;-70
2023/07/03 01:21:22;;;;;;;16.58;7.72;;;;;;;20.07;65.79;100224.38;5117719;28;20020;-70
2023/07/03 01:23:59;;;;;;;14.70;8.10;;;;;;;20.04;65.67;100224.53;5099375;28;20062;-70
2023/07/03 01:26:27;;;;;;;16.58;7.82;;;;;;;20.06;65.40;100227.13;5117899;28;20046;-70
2023/07/03 01:28:57;;;;;;;15.77;7.40;;;;;;;20.08;65.61;100226.13;5117422;28;20031;-70
2023/07/03 01:31:25;;;;;;;16.27;8.20;;;;;;;20.08;65.49;100226.13;5099301;28;20042;-70
2023/07/03 01:33:53;;;;;;;15.50;7.65;;;;;;;20.08;65.41;100231.47;5117663;28;20101;-70
2023/07/03 01:36:18;;;;;;;15.25;7.50;;;;;;;20.12;65.53;100223.31;5099399;28;20058;-70
2023/07/03 01:38:45;;;;;;;15.33;7.10;;;;;;;20.09;65.08;100232.34;5117771;28;20028;-70
2023/07/03 01:41:14;;;;;;;20.23;8.75;;;;;;;20.08;65.16;100228.78;5117469;28;20023;-70
2023/07/03 01:43:42;;;;;;;16.40;8.05;;;;;;;20.08;65.10;100220.78;5117221;28;20035;-70
2023/07/03 01:46:08;;;;;;;17.20;8.23;;;;;;;20.08;65.07;100225.25;5117164;28;20023;-70
2023/07/03 01:48:34;;;;;;;17.57;8.23;;;;;;;20.02;65.42;100226.41;5117345;28;20027;-70
2023/07/03 01:51:01;;;;;;;16.98;8.50;;;;;;;19.98;65.64;100230.16;5117471;28;20020;-70
2023/07/03 01:53:31;;;;;;;16.27;7.95;;;;;;;19.96;65.80;100226.69;5116924;28;20027;-70
2023/07/03 01:56:04;;;;;;;15.57;7.70;;;;;;;19.95;65.47;100219.59;5117330;28;20063;-70
2023/07/03 01:58:49;;;;;;;16.05;7.85;;;;;;;19.93;65.62;100221.47;5113015;28;20047;-70
2023/07/03 02:01:34;;;;;;;18.02;8.20;;;;;;;19.92;65.48;100225.09;5116426;28;20396;-70
2023/07/03 02:04:06;;;;;;;16.77;7.95;;;;;;;19.92;65.62;100222.41;5117394;28;20548;-70
2023/07/03 02:06:37;;;;;;;17.35;7.82;;;;;;;19.93;65.31;100226.81;5117040;28;20019;-70
2023/07/03 02:09:05;;;;;;;16.37;7.60;;;;;;;19.96;65.39;100232.03;5116801;28;20038;-70
2023/07/03 02:11:30;;;;;;;16.45;7.55;;;;;;;19.97;65.33;100228.41;5117027;28;20025;-70
2023/07/03 02:13:56;;;;;;;14.90;7.55;;;;;;;19.98;65.21;100231.94;5117044;28;20114;-70
2023/07/03 02:16:21;;;;;;;18.03;7.73;;;;;;;19.94;65.11;100228.56;5116866;28;20024;-70
2023/07/03 02:18:47;;;;;;;18.60;8.13;;;;;;;19.93;65.48;100232.16;5115147;28;20023;-70
2023/07/03 02:21:13;;;;;;;16.02;8.10;;;;;;;19.91;65.17;100231.38;5117216;28;20019;-70
2023/07/03 02:23:39;;;;;;;15.70;7.85;;;;;;;19.90;65.61;100235.78;5116795;28;20046;-70
2023/07/03 02:26:05;;;;;;;17.77;8.02;;;;;;;19.89;65.46;100228.72;5117178;28;20063;-70
2023/07/03 02:28:30;;;;;;;20.13;7.97;;;;;;;19.86;65.44;100233.31;5117255;28;20436;-70
2023/07/03 02:30:56;;;;;;;17.77;8.03;;;;;;;19.81;65.23;100225.50;5116727;28;20492;-70
2023/07/03 02:33:21;;;;;;;17.17;8.30;;;;;;;19.78;65.32;100225.66;5117059;28;20024;-70
2023/07/03 02:35:47;;;;;;;17.23;7.45;;;;;;;19.74;65.38;100226.69;5117049;28;20055;-70
2023/07/03 02:38:14;;;;;;;19.17;7.87;;;;;;;19.72;65.38;100223.22;5117240;28;20030;-70
2023/07/03 02:40:40;;;;;;;18.10;7.93;;;;;;;19.64;65.38;100226.22;5098416;28;20399;-70
2023/07/03 02:43:05;;;;;;;14.27;7.73;;;;;;;19.60;65.42;100225.50;5098699;28;20046;-70
2023/07/03 02:45:37;;;;;;;16.60;7.40;;;;;;;19.56;65.37;100213.22;5116350;28;20011;-70
2023/07/03 02:48:03;;;;;;;19.48;7.70;;;;;;;19.57;65.64;100216.72;5116386;28;20076;-70
2023/07/03 02:50:28;;;;;;;17.27;7.78;;;;;;;19.57;65.61;100220.28;5116926;28;20059;-70
2023/07/03 02:52:54;;;;;;;17.43;8.00;;;;;;;19.51;65.78;100225.88;5116764;28;20051;-70
2023/07/03 02:55:19;;;;;;;16.97;8.10;;;;;;;19.41;65.43;100220.06;5098383;28;20106;-70
2023/07/03 02:57:44;;;;;;;19.80;8.50;;;;;;;19.35;65.97;100223.84;5116545;28;20040;-70
2023/07/03 03:00:11;;;;;;;16.90;8.10;;;;;;;19.28;65.98;100219.69;5116633;28;20482;-70
2023/07/03 03:02:36;;;;;;;15.95;7.22;;;;;;;19.26;65.88;100220.69;5116644;28;20111;-70
2023/07/03 03:05:02;;;;;;;19.90;8.10;;;;;;;19.21;65.94;100224.41;5116697;28;20067;-70
2023/07/03 03:07:27;;;;;;;18.37;7.53;;;;;;;19.19;66.26;100220.94;5116115;28;20024;-70
2023/07/03 03:09:53;;;;;;;15.50;7.50;;;;;;;19.16;66.27;100220.19;5116382;28;20546;-70
2023/07/03 03:12:18;;;;;;;14.90;7.57;;;;;;;19.12;66.04;100224.78;5098344;28;20568;-70
2023/07/03 03:14:44;;;;;;;17.10;7.97;;;;;;;19.07;66.22;100221.44;5116303;28;20265;-70
2023/07/03 03:17:09;;;;;;;19.00;8.47;;;;;;;19.07;66.21;100229.44;5114648;28;20049;-70
2023/07/03 03:19:34;;;;;;;17.30;8.33;;;;;;;19.03;66.28;100225.16;5115731;28;20028;-70
2023/07/03 03:22:00;;;;;;;18.30;8.50;;;;;;;18.96;66.52;100234.31;5119009;28;20024;-70
2023/07/03 03:24:26;;;;;;;17.92;8.73;;;;;;;18.87;66.75;100232.88;5120077;28;20102;-70
2023/07/03 03:26:52;;;;;;;16.50;7.40;;;;;;;18.83;66.84;100234.78;5101714;28;20514;-70
2023/07/03 03:29:17;;;;;;;20.45;8.60;;;;;;;18.82;66.72;100235.72;5119828;28;20019;-70
2023/07/03 03:31:43;;;;;;;16.77;8.17;;;;;;;18.78;66.96;100244.78;5120030;28;20032;-70
2023/07/03 03:34:08;;;;;;;18.70;9.23;;;;;;;18.71;66.96;100240.59;5119845;28;20512;-70
2023/07/03 03:36:38;;;;;;;19.93;8.60;;;;;;;18.65;67.45;100241.72;5120068;28;20023;-70
2023/07/03 03:39:04;;;;;;;16.90;8.25;;;;;;;18.62;67.41;100247.16;5120339;28;20100;-70
2023/07/03 03:41:29;;;;;;;18.90;8.47;;;;;;;18.64;67.57;100245.31;5119754;28;20051;-70
2023/07/03 03:43:54;;;;;;;20.85;8.68;;;;;;;18.67;67.29;100238.97;5118961;28;20088;-70
2023/07/03 03:46:20;;;;;;;17.47;8.00;;;;;;;18.70;67.38;100244.22;5119684;28;20476;-70
2023/07/03 03:48:45;;;;;;;16.97;8.33;;;;;;;18.71;67.26;100237.94;5119640;28;20077;-70
2023/07/03 03:51:11;;;;;;;17.60;7.73;;;;;;;18.71;67.08;100236.13;5101385;28;20024;-70
2023/07/03 03:53:36;;;;;;;19.57;8.10;;;;;;;18.72;67.24;100242.34;5119360;28;20023;-70
2023/07/03 03:56:01;;;;;;;19.00;8.77;;;;;;;18.73;66.98;100244.09;5119389;28;20687;-70
2023/07/03 03:58:27;;;;;;;17.17;8.43;;;;;;;18.73;66.93;100244.09;5119329;28;20488;-70
2023/07/03 04:00:52;;;;;;;16.13;8.10;;;;;;;18.71;66.94;100253.94;5119308;28;20386;-70
2023/07/03 04:03:18;;;;;;;17.77;8.07;;;;;;;18.65;67.21;100242.56;5119459;28;20026;-70
2023/07/03 04:05:44;;;;;;;15.73;8.02;;;;;;;18.63;67.17;100232.91;5119551;28;20099;-70
2023/07/03 04:08:10;;;;;;;18.08;8.30;;;;;;;18.60;67.19;100243.69;5119271;28;20019;-70
2023/07/03 04:10:36;;;;;;;21.03;8.90;;;;;;;18.52;67.56;100238.63;5119362;28;20020;-70
2023/07/03 04:13:01;;;;;;;18.55;8.68;;;;;;;18.41;67.47;100243.47;5119326;28;20483;-70
2023/07/03 04:15:33;;;;;;;24.57;9.43;;;;;;;18.32;67.96;100255.34;5118922;28;20088;-69
2023/07/03 04:17:59;;;;;;;20.52;9.05;;;;;;;18.22;67.99;100253.03;5117009;28;20074;-70
2023/07/03 04:20:25;;;;;;;19.77;8.83;;;;;;;18.14;68.40;100251.56;5119269;28;20757;-70
2023/07/03 04:22:50;;;;;;;19.38;8.82;;;;;;;18.07;68.48;100251.78;5119170;28;20023;-70
2023/07/03 04:25:16;;;;;;;20.48;9.05;;;;;;;18.04;68.32;100245.69;5119248;28;20081;-70
2023/07/03 04:27:42;;;;;;;18.57;8.80;;;;;;;18.03;68.40;100255.50;5119251;28;20055;-70
2023/07/03 04:30:08;;;;;;;19.10;8.98;;;;;;;18.04;68.49;100251.91;5118696;28;20024;-70
2023/07/03 04:32:34;;;;;;;22.50;9.13;;;;;;;18.07;68.57;100256.25;5118974;28;20054;-70
2023/07/03 04:35:00;;;;;;;18.00;8.90;;;;;;;18.03;68.41;100260.81;5100709;28;20047;-70
2023/07/03 04:37:27;;;;;;;24.67;9.35;;;;;;;17.96;68.55;100251.25;5118627;28;20075;-70
2023/07/03 04:39:56;;;;;;;17.33;8.73;;;;;;;17.95;68.64;100257.50;5118879;28;20062;-70
2023/07/03 04:42:22;;;;;;;18.70;8.70;;;;;;;17.96;68.77;100264.56;5117929;28;20782;-70
2023/07/03 04:44:51;;;;;;;19.38;8.50;;;;;;;17.97;68.64;100257.47;5118421;28;20479;-70
2023/07/03 04:47:17;;;;;;;22.63;9.10;;;;;;;18.02;68.57;100269.75;5118443;28;20032;-70
2023/07/03 04:49:46;;;;;;;19.52;9.05;;;;;;;18.01;68.54;100273.34;5118653;28;20041;-70
2023/07/03 04:52:16;;;;;;;20.05;8.55;;;;;;;17.99;68.74;100275.16;5118559;28;20576;-70
2023/07/03 04:54:42;;;;;;;21.57;9.53;;;;;;;18.00;68.72;100278.66;5118585;28;20495;-70
2023/07/03 04:57:07;;;;;;;21.52;9.25;;;;;;;17.99;68.65;100275.16;5118162;28;20474;-70
2023/07/03 04:59:33;;;;;;;21.23;9.20;;;;;;;17.98;68.73;100278.75;5118012;28;20076;-70
2023/07/03 05:01:58;;;;;;;20.70;9.20;;;;;;;17.93;69.00;100275.34;5118474;28;20027;-70
2023/07/03 05:04:23;;;;;;;21.10;9.03;;;;;;;17.99;68.84;100280.47;5099895;28;20357;-70
2023/07/03 05:06:50;;;;;;;18.97;9.20;;;;;;;18.15;68.39;100286.16;5118353;28;20019;-70
2023/07/03 05:09:16;;;;;;;24.17;9.95;;;;;;;18.29;68.07;100284.78;5117880;28;20019;-70
2023/07/03 05:11:41;;;;;;;19.47;9.97;;;;;;;18.24;68.16;100284.97;5118190;28;20635;-70
2023/07/03 05:14:07;;;;;;;18.97;9.43;;;;;;;18.18;68.57;100286.06;5117738;28;20108;-70
2023/07/03 05:16:32;;;;;;;21.73;10.23;;;;;;;18.14;68.64;100284.44;5117982;28;20062;-70
2023/07/03 05:18:57;;;;;;;19.73;8.87;;;;;;;18.27;68.33;100292.84;5115482;28;20071;-70
2023/07/03 05:21:23;;;;;;;22.50;9.13;;;;;;;18.39;67.85;100293.31;5118111;28;20273;-70
2023/07/03 05:23:48;;;;;;;22.40;9.50;;;;;;;18.58;67.48;100285.53;5117844;28;20019;-70
2023/07/03 05:26:14;;;;;;;18.90;9.03;;;;;;;18.74;67.04;100293.84;5117936;28;20084;-70
2023/07/03 05:28:39;;;;;;;19.35;8.55;;;;;;;18.93;66.15;100286.88;5117761;28;20102;-70
2023/07/03 05:31:04;;;;;;;21.57;9.00;;;;;;;19.02;66.45;100290.13;5117646;28;20102;-70
2023/07/03 05:33:30;;;;;;;22.33;8.80;;;;;;;19.14;66.21;100286.13;5117746;28;20019;-70
2023/07/03 05:35:58;;;;;;;18.80;8.93;;;;;;;19.34;65.20;100287.97;5117995;28;20464;-70
2023/07/03 05:38:24;;;;;;;19.67;8.90;;;;;;;19.49;64.90;100282.03;5117385;28;20274;-70
2023/07/03 05:40:50;;;;;;;21.53;9.57;;;;;;;19.54;65.15;100283.63;5117640;28;20026;-70
2023/07/03 05:43:16;;;;;;;20.53;9.40;;;;;;;19.58;64.70;100291.47;5117044;28;20313;-70
2023/07/03 05:45:41;;;;;;;19.33;9.82;;;;;;;19.61;64.60;100290.47;5115568;28;20026;-70
2023/07/03 05:48:07;;;;;;;21.03;9.47;;;;;;;19.61;64.24;100295.78;5116249;28;20035;-70
2023/07/03 05:50:32;;;;;;;20.80;9.80;;;;;;;19.73;64.08;100297.97;5116993;28;20341;-70
2023/07/03 05:52:57;;;;;;;23.03;9.90;;;;;;;19.87;64.12;100296.50;5116887;28;20027;-70
2023/07/03 05:55:23;;;;;;;25.57;9.40;;;;;;;20.10;63.32;100292.00;5098487;28;20122;-70
2023/07/03 05:57:48;;;;;;;22.93;9.27;;;;;;;20.22;63.27;100299.50;5113405;28;20092;-70
2023/07/03 06:00:14;;;;;;;21.03;9.90;;;;;;;20.31;63.03;100290.22;5097263;28;20051;-71
2023/07/03 06:02:44;;;;;;;20.47;9.03;;;;;;;20.39;62.81;100297.91;5116469;28;20265;-70
2023/07/03 06:05:11;;;;;;;21.02;8.98;;;;;;;20.52;62.76;100291.06;5097517;28;20434;-70
2023/07/03 06:07:37;;;;;;;23.80;9.10;;;;;;;20.65;62.24;100294.91;5116739;28;20032;-70
2023/07/03 06:10:04;;;;;;;23.63;8.97;;;;;;;20.84;62.10;100295.91;5117010;28;20027;-75
2023/07/03 06:12:29;;;;;;;23.23;9.93;;;;;;;20.93;61.49;100299.00;5117555;28;20480;-74
2023/07/03 06:14:57;;;;;;;23.70;10.25;;;;;;;20.85;61.57;100301.16;5116998;28;20049;-75
2023/07/03 06:17:24;;;;;;;27.20;9.82;;;;;;;20.79;61.93;100297.00;5114697;28;20476;-75
2023/07/03 06:19:49;;;;;;;21.73;10.50;;;;;;;20.71;61.93;100298.25;5117528;28;20031;-75
2023/07/03 06:22:14;;;;;;;25.45;9.57;;;;;;;20.67;62.03;100297.50;5116731;28;20020;-74
2023/07/03 06:24:40;;;;;;;19.87;9.40;;;;;;;20.73;62.10;100301.72;5116592;28;20544;-74
2023/07/03 06:27:06;;;;;;;22.13;9.73;;;;;;;20.92;62.17;100297.28;5116442;28;20073;-73
2023/07/03 06:29:32;;;;;;;20.05;9.10;;;;;;;21.16;61.51;100299.75;5116600;28;20024;-73
2023/07/03 06:31:58;;;;;;;24.77;9.60;;;;;;;21.37;60.90;100302.31;5116913;28;20027;-73
2023/07/03 06:34:23;;;;;;;20.47;8.97;;;;;;;21.52;60.71;100300.69;5111511;28;20043;-75
2023/07/03 06:36:49;;;;;;;26.70;9.57;;;;;;;21.63;60.09;100303.69;5096531;28;20026;-75
2023/07/03 06:39:15;;;;;;;21.58;9.63;;;;;;;21.62;60.53;100303.78;5116456;28;20023;-74
2023/07/03 06:41:40;;;;;;;19.10;8.67;;;;;;;21.74;60.54;100311.25;5115012;28;20031;-73
2023/07/03 06:44:11;;;;;;;21.83;8.93;;;;;;;21.94;59.63;100310.25;5110313;28;20031;-74
2023/07/03 06:46:36;;;;;;;20.67;8.98;;;;;;;22.16;59.79;100302.91;5116461;28;20157;-74
2023/07/03 06:49:02;;;;;;;23.63;8.93;;;;;;;22.39;59.23;100300.81;5116588;28;20106;-74
2023/07/03 06:51:28;;;;;;;23.50;9.50;;;;;;;22.54;58.51;100294.66;5116835;28;20061;-74
2023/07/03 06:53:53;;;;;;;21.75;8.80;;;;;;;22.64;58.42;100293.22;5116862;28;20027;-74
2023/07/03 06:56:19;;;;;;;21.83;8.50;;;;;;;22.75;58.11;100291.75;5117891;28;20094;-74
2023/07/03 06:58:47;;;;;;;21.58;8.85;;;;;;;22.91;57.85;100295.34;5102012;28;20019;-74
2023/07/03 07:01:13;;;;;;;18.40;8.38;;;;;;;23.08;57.35;100293.53;5120586;28;20046;-74
2023/07/03 07:03:39;;;;;;;23.47;9.63;;;;;;;23.14;56.51;100298.56;5120470;28;20024;-74
2023/07/03 07:06:25;;;;;;;21.90;8.75;;;;;;;23.14;56.73;100290.50;5102059;28;20023;-74
2023/07/03 07:08:52;;;;;;;21.60;8.43;;;;;;;23.28;56.30;100294.28;5120465;28;20079;-74
2023/07/03 07:11:25;;;;;;;21.87;8.13;;;;;;;23.39;56.24;100290.94;5120637;28;20438;-74
2023/07/03 07:13:52;;;;;;;21.55;8.88;;;;;;;23.49;56.08;100284.94;5120503;28;20054;-74
2023/07/03 07:16:21;;;;;;;22.30;9.00;;;;;;;23.49;55.67;100287.63;5120182;28;20051;-74
2023/07/03 07:18:50;;;;;;;24.42;8.73;;;;;;;23.25;56.13;100294.38;5100099;28;20024;-73
2023/07/03 07:21:16;;;;;;;24.05;8.63;;;;;;;23.32;56.24;100290.44;5120334;28;20031;-74
2023/07/03 07:23:41;;;;;;;17.70;7.73;;;;;;;23.51;55.70;100291.13;5101825;28;20023;-74
2023/07/03 07:26:07;;;;;;;23.10;8.63;;;;;;;23.72;55.32;100288.09;5120397;28;20027;-74
2023/07/03 07:28:32;;;;;;;18.03;7.27;;;;;;;23.93;54.97;100285.09;5120195;28;20437;-74
2023/07/03 07:30:58;;;;;;;20.75;8.43;;;;;;;24.18;54.36;100279.16;5119580;28;20399;-74
2023/07/03 07:33:23;;;;;;;20.30;8.00;;;;;;;24.37;54.49;100284.25;5120160;28;20065;-74
2023/07/03 07:35:51;;;;;;;20.70;7.80;;;;;;;24.56;53.92;100288.50;5120233;28;20076;-74
2023/07/03 07:38:18;;;;;;;21.27;7.47;;;;;;;24.70;53.05;100274.16;5101673;28;20023;-74
2023/07/03 07:40:43;;;;;;;19.88;8.00;;;;;;;24.76;52.80;100283.72;5120077;28;20039;-74
2023/07/03 07:43:09;;;;;;;20.92;8.05;;;;;;;24.69;52.80;100287.72;5119866;28;20042;-74
2023/07/03 07:45:34;;;;;;;17.50;7.47;;;;;;;24.76;52.40;100287.25;5119425;28;20115;-74
2023/07/03 07:48:00;;;;;;;16.70;7.10;;;;;;;24.88;52.06;100288.31;5101485;28;20026;-74
2023/07/03 07:50:27;;;;;;;14.77;6.67;;;;;;;25.03;51.90;100281.06;5119991;28;20020;-74
2023/07/03 07:52:53;;;;;;;17.73;7.10;;;;;;;25.22;51.60;100286.16;5120017;28;20027;-74
2023/07/03 07:55:18;;;;;;;16.65;6.78;;;;;;;25.35;50.83;100285.31;5119667;28;20023;-74
2023/07/03 07:57:44;;;;;;;15.80;7.20;;;;;;;25.53;50.63;100277.88;5119475;28;20499;-74
2023/07/03 08:00:10;;;;;;;17.40;6.40;;;;;;;25.63;50.04;100281.69;5105848;28;20047;-74
2023/07/03 08:02:36;;;;;;;15.73;7.10;;;;;;;25.70;49.52;100279.44;5119693;28;20120;-74
2023/07/03 08:05:01;;;;;;;18.33;7.07;;;;;;;25.66;49.57;100275.22;5119374;28;20027;-74
2023/07/03 08:07:26;;;;;;;15.93;7.13;;;;;;;25.53;50.22;100283.25;5118854;28;20042;-75
2023/07/03 08:09:52;;;;;;;12.53;6.80;;;;;;;25.44;49.83;100276.66;5119152;28;20368;-74
2023/07/03 08:12:17;;;;;;;16.23;6.73;;;;;;;25.39;50.25;100269.81;5119499;28;20455;-74
2023/07/03 08:14:43;;;;;;;15.40;6.50;;;;;;;25.32;49.92;100277.44;5119126;28;20111;-74
2023/07/03 08:17:08;;;;;;;13.90;6.35;;;;;;;25.43;49.85;100274.03;5117519;28;20020;-74
2023/07/03 08:19:33;;;;;;;15.50;6.87;;;;;;;25.60;48.91;100275.63;5118773;28;20458;-74
2023/07/03 08:21:59;;;;;;;16.60;7.10;;;;;;;25.73;48.92;100273.84;5100908;28;20019;-74
2023/07/03 08:24:24;;;;;;;17.03;6.50;;;;;;;25.82;48.67;100274.19;5119107;28;20023;-75
2023/07/03 08:26:51;;;;;;;14.20;6.80;;;;;;;25.85;48.81;100271.25;5118821;28;20053;-75
2023/07/03 08:29:16;;;;;;;16.40;7.30;;;;;;;26.04;48.42;100270.84;5118642;28;20030;-74
2023/07/03 08:31:42;;;;;;;15.93;6.78;;;;;;;26.27;48.30;100265.72;5118922;28;20031;-74
2023/07/03 08:34:09;;;;;;;14.70;6.90;;;;;;;26.42;47.90;100270.03;5118742;28;20024;-74
2023/07/03 08:36:35;;;;;;;15.23;6.80;;;;;;;26.53;48.13;100266.59;5118985;28;20016;-75
2023/07/03 08:39:02;;;;;;;14.93;7.10;;;;;;;26.55;47.49;100264.63;5118795;28;20023;-74
2023/07/03 08:41:28;;;;;;;16.88;6.90;;;;;;;26.64;47.27;100258.56;5118593;28;20027;-74
2023/07/03 08:43:56;;;;;;;16.65;6.43;;;;;;;26.74;46.93;100256.06;5118307;28;20045;-74
2023/07/03 08:46:24;;;;;;;14.70;6.50;;;;;;;26.86;46.68;100254.34;5100366;28;20023;-74
2023/07/03 08:48:53;;;;;;;13.60;6.28;;;;;;;26.83;46.16;100254.53;5100239;28;20077;-74
2023/07/03 08:51:22;;;;;;;14.88;6.35;;;;;;;26.77;45.14;100257.69;5118543;28;20854;-75
2023/07/03 08:53:54;;;;;;;22.10;7.60;;;;;;;26.64;46.14;100261.25;5118622;28;20034;-75
2023/07/03 08:56:21;;;;;;;16.35;6.50;;;;;;;26.68;45.54;100252.97;5118357;28;20040;-74
2023/07/03 08:58:51;;;;;;;16.53;6.63;;;;;;;26.75;45.91;100256.94;5118374;28;20027;-75
2023/07/03 09:02:02;;;;;;;17.05;6.55;;;;;;;26.59;44.90;100263.44;5118242;28;20027;-75
2023/07/03 09:04:46;;;;;;;15.68;6.47;;;;;;;26.64;45.24;100263.97;5078949;28;20040;-75
2023/07/03 09:07:44;;;;;;;13.45;6.30;;;;;;;26.88;45.19;100271.28;5118373;28;20111;-75
2023/07/03 09:10:21;;;;;;;13.48;5.57;;;;;;;26.88;44.26;100271.28;5081882;28;20036;-75
2023/07/03 09:13:02;;;;;;;14.73;6.23;;;;;;;26.59;45.11;100271.53;5118236;28;20102;-75
2023/07/03 09:15:35;;;;;;;13.43;6.50;;;;;;;26.40;45.42;100276.50;5117870;28;20023;-75
2023/07/03 09:18:03;;;;;;;15.30;6.53;;;;;;;26.44;45.91;100272.66;5115367;28;20016;-75
2023/07/03 09:20:30;;;;;;;14.98;6.45;;;;;;;26.34;45.69;100281.38;5117660;28;20106;-75
2023/07/03 09:23:04;;;;;;;14.63;6.30;;;;;;;26.29;45.49;100275.44;5117785;28;20046;-75
2023/07/03 09:25:41;;;;;;;10.27;5.37;;;;;;;26.33;45.67;100276.13;5117782;28;20028;-75
2023/07/03 09:28:09;;;;;;;10.88;5.38;;;;;;;26.57;45.36;100273.50;5099644;28;20039;-75
2023/07/03 09:30:35;;;;;;;10.95;4.70;;;;;;;26.86;44.57;100262.44;5117534;28;20051;-74
2023/07/03 09:33:01;;;;;;;14.05;5.93;;;;;;;27.13;44.40;100260.53;5117786;28;20617;-75
2023/07/03 09:35:35;;;;;;;19.97;6.87;;;;;;;27.35;43.92;100260.66;5117751;28;20098;-75
2023/07/03 09:38:01;;;;;;;14.23;5.75;;;;;;;27.60;43.74;100260.66;5118129;28;20015;-75
2023/07/03 09:40:32;;;;;;;11.93;6.05;;;;;;;27.69;43.68;100259.09;5117464;28;20023;-75
2023/07/03 09:42:59;;;;;;;12.70;6.30;;;;;;;27.84;43.70;100266.06;5117894;28;20024;-75
2023/07/03 09:45:31;;;;;;;13.50;6.18;;;;;;;27.67;41.74;100251.13;5117146;28;20033;-74
2023/07/03 09:47:59;;;;;;;13.73;5.75;;;;;;;27.73;43.29;100255.19;5117648;28;20031;-75
2023/07/03 09:50:28;;;;;;;14.05;5.75;;;;;;;27.60;43.52;100260.66;5117675;28;20024;-75
2023/07/03 09:52:58;;;;;;;13.00;5.80;;;;;;;27.40;43.91;100254.03;5117481;28;20080;-75
2023/07/03 09:55:25;;;;;;;10.93;5.40;;;;;;;27.18;44.13;100261.94;5117593;28;20038;-75
2023/07/03 09:57:51;;;;;;;10.85;5.70;;;;;;;26.96;44.39;100261.78;5117172;28;20047;-75
2023/07/03 10:00:23;;;;;;;12.03;5.60;;;;;;;26.85;44.51;100260.72;5117258;28;20118;-75
2023/07/03 10:02:54;;;;;;;15.57;6.13;;;;;;;27.11;44.48;100263.34;5117457;28;20027;-75
2023/07/03 10:05:31;;;;;;;12.13;5.28;;;;;;;27.41;44.08;100256.66;5117404;28;20032;-75
2023/07/03 10:08:01;;;;;;;11.35;5.68;;;;;;;27.62;42.65;100264.16;5117325;28;20019;-75
2023/07/03 10:10:28;;;;;;;11.85;5.70;;;;;;;27.72;42.67;100259.75;5117262;28;20054;-75
2023/07/03 10:13:12;;;;;;;11.43;5.50;;;;;;;27.93;42.31;100256.38;5117112;28;20065;-75
2023/07/03 10:15:40;;;;;;;10.95;5.32;;;;;;;28.08;41.74;100252.44;5116905;28;20051;-75
2023/07/03 10:18:11;;;;;;;14.07;5.70;;;;;;;28.08;42.39;100257.00;5114844;28;20051;-75
2023/07/03 10:20:42;;;;;;;12.18;5.10;;;;;;;28.43;42.25;100256.06;5117256;28;20108;-75
2023/07/03 10:23:11;;;;;;;13.35;5.90;;;;;;;28.75;41.73;100246.34;5117259;28;20072;-75
2023/07/03 10:25:41;;;;;;;10.43;5.87;;;;;;;28.78;39.92;100249.69;5113141;28;20028;-75
2023/07/03 10:28:12;;;;;;;12.38;5.60;;;;;;;28.65;40.52;100252.53;5117272;28;20030;-75
2023/07/03 10:30:39;;;;;;;11.85;5.53;;;;;;;28.72;41.02;100242.06;5118944;28;20051;-75
2023/07/03 10:33:18;;;;;;;12.82;6.00;;;;;;;28.63;39.89;100242.78;5102875;28;20063;-75
2023/07/03 10:35:47;;;;;;;9.32;5.03;;;;;;;28.40;41.07;100241.94;5121287;28;20032;-75
2023/07/03 10:38:29;;;;;;;10.57;4.80;;;;;;;28.47;40.81;100243.16;5121366;28;20043;-75
2023/07/03 10:41:04;;;;;;;11.60;4.85;;;;;;;28.70;40.62;100238.63;5121275;28;20023;-75
2023/07/03 10:43:38;;;;;;;8.88;4.32;;;;;;;29.01;40.40;100238.84;5120683;28;20019;-75
2023/07/03 10:46:07;;;;;;;10.07;4.80;;;;;;;29.33;40.11;100245.28;5101135;28;20081;-75
2023/07/03 10:48:34;;;;;;;9.52;5.20;;;;;;;29.57;39.60;100234.22;5118961;28;20049;-75
2023/07/03 10:51:09;;;;;;;10.80;4.93;;;;;;;29.83;39.91;100235.69;5121085;28;20631;-75
2023/07/03 10:53:50;;;;;;;12.30;5.43;;;;;;;29.72;39.77;100234.75;5126310;27;20054;-73
2023/07/03 10:56:29;;;;;;;10.70;5.10;;;;;;;29.43;39.86;100237.25;5120525;28;20151;-75
2023/07/03 10:59:21;;;;;;;12.45;5.00;;;;;;;29.21;40.21;100233.59;5102348;28;20027;-76
2023/07/03 11:01:59;;;;;;;9.35;4.90;;;;;;;29.07;40.32;100229.34;5117725;28;20038;-75
2023/07/03 11:04:30;;;;;;;10.20;4.87;;;;;;;29.06;40.31;100228.47;5099855;28;20118;-75
2023/07/03 11:07:15;;;;;;;9.52;4.97;;;;;;;28.84;40.50;100240.22;5101533;28;20023;-75
2023/07/03 11:10:02;;;;;;;10.13;4.50;;;;;;;28.68;40.85;100240.56;5121488;27;20032;-75
2023/07/03 11:13:01;;;;;;;11.57;4.80;;;;;;;28.76;40.82;100231.81;5118553;28;20027;-75
2023/07/03 11:15:41;;;;;;;13.40;4.72;;;;;;;29.12;40.29;100232.53;5085140;28;20031;-75
2023/07/03 11:18:38;;;;;;;12.57;4.70;;;;;;;29.23;40.28;100239.75;5117856;28;20026;-75
2023/07/03 11:21:12;;;;;;;9.65;4.38;;;;;;;29.10;40.32;100229.09;5118197;28;20049;-75